• Join FlightAware (Why Join?)
  • Login
  • US Flag 
02:45PM EDT


 

Airport Tracker/Info


-or-


 

Live Flight TrackerFlight Track Log ✈ CTL78 ✈ 19-Apr-2013 ✈ KYIP - KBKL

Flight Track Log - Related Links

Times and Time Zones

All times are in EDT time to prevent confusion due to time zone crossing. See the CTL78 flight status page for this flight to view local times or setup timezone preferences in your user account.

Time Position Orientation Groundspeed Altitude Reporting Facility
EDT Latitude Longitude Course Direction KTS MPH feet Rate Location/Type
05:45PM 42.1894 -83.5931 225° Southwest 125 144 2,300  Level Cleveland Center
05:46PM 42.1594 -83.6169 211° Southwest 134 154 2,700 300 Climbing Cleveland Center
05:47PM 42.1133 -83.6258 188° South 145 167 3,000 180 Climbing Cleveland Center
05:48PM 42.0747 -83.5933 148° Southeast 173 199 3,100  Climbing Cleveland Center
05:49PM 42.0447 -83.5444 130° Southeast 198 228 3,100  Level Cleveland Center
05:50PM 42.0197 -83.4647 113° Southeast 193 222 3,100  Level Cleveland Center
05:51PM 42.0044 -83.4056 109° East 197 227 3,200  Climbing Cleveland Center
05:52PM 41.9833 -83.3347 112° Southeast 194 223 3,100 -60 Descending Cleveland Center
05:53PM 41.9619 -83.2694 114° Southeast 193 222 3,100  Level Cleveland Center
05:54PM 41.9425 -83.2072 113° Southeast 188 216 3,100  Level Cleveland Center
05:55PM 41.9253 -83.1314 107° East 190 219 3,100  Level Cleveland Center
05:56PM 41.9061 -83.0636 111° Southeast 193 222 3,200  Climbing Cleveland Center
05:57PM 41.8867 -82.9958 111° Southeast 196 226 3,100  Descending Cleveland Center
05:58PM 41.8728 -82.9533 114° Southeast 197 227 3,200  Climbing Cleveland Center
05:59PM 41.8417 -82.8519 112° Southeast 198 228 3,100  Descending Cleveland Center
06:00PM 41.8219 -82.7872 112° Southeast 189 217 3,200  Climbing Cleveland Center
06:01PM 41.8044 -82.7225 110° East 188 216 3,100 -60 Descending Cleveland Center
06:02PM 41.7889 -82.6608 109° East 189 217 3,100  Level Cleveland Center
06:03PM 41.7650 -82.5931 115° Southeast 191 220 3,100  Level Cleveland Center
06:04PM 41.7497 -82.5258 107° East 190 219 3,100  Level Cleveland Center
06:05PM 41.7319 -82.4558 109° East 191 220 3,200  Climbing Cleveland Center
06:06PM 41.7186 -82.3886 105° East 194 223 3,200 -60 Level Cleveland Center
06:07PM 41.7050 -82.3186 105° East 195 224 3,100 -60 Descending Cleveland Center
06:08PM 41.6894 -82.2347 104° East 197 227 3,100  Level Cleveland Center
06:09PM 41.6739 -82.1650 107° East 199 229 3,100  Level Cleveland Center
06:10PM 41.6622 -82.0925 102° East 200 230 3,100 -180 Level Cleveland Center
06:11PM 41.6486 -82.0253 105° East 202 232 2,800 -420 Descending Cleveland Center
06:12PM 41.6350 -81.9500 104° East 208 239 2,400 -360 Descending Cleveland Center
06:13PM 41.6150 -81.8831 112° Southeast 193 222 2,100 -240 Descending Cleveland Center
06:14PM 41.5947 -81.8242 115° Southeast 188 216 2,000 -60 Descending Cleveland Center
06:15PM 41.5725 -81.7572 114° Southeast 188 216 2,000 -120 Level Cleveland Center
06:16PM 41.5564 -81.6931 109° East 173 199 1,800 -480 Descending Cleveland Center
06:17PM 41.5297 -81.6647 141° Southeast 106 122 1,100 -720 Descending Cleveland Center
06:19PM 41.5167 -81.6667 108° East  Level FlightAware Approximate
06:26PM 41.5175 -81.6833 108° East  Level Estimated